createdAt,value
2023-03-07T00:00:02.748Z,996.56
2023-03-07T00:01:02.670Z,996.50
2023-03-07T00:02:02.597Z,996.51
2023-03-07T00:03:02.628Z,996.51
2023-03-07T00:04:23.436Z,996.52
2023-03-07T00:05:02.398Z,996.50
2023-03-07T00:06:02.308Z,996.50
2023-03-07T00:07:02.248Z,996.47
2023-03-07T00:08:02.169Z,996.46
2023-03-07T00:09:02.101Z,996.44
2023-03-07T00:10:23.010Z,996.43
2023-03-07T00:11:01.949Z,996.41
2023-03-07T00:12:01.879Z,996.39
2023-03-07T00:13:01.805Z,996.40
2023-03-07T00:14:01.733Z,996.36
2023-03-07T00:15:01.659Z,996.32
2023-03-07T00:16:22.609Z,996.34
2023-03-07T00:17:01.516Z,996.37
2023-03-07T00:18:01.436Z,996.36
2023-03-07T00:19:01.371Z,996.34
2023-03-07T00:20:01.305Z,996.36
2023-03-07T00:21:01.229Z,996.34
2023-03-07T00:22:22.153Z,996.31
2023-03-07T00:23:01.098Z,996.32
2023-03-07T00:24:01.025Z,996.26
2023-03-07T00:25:00.940Z,996.28
2023-03-07T00:26:00.889Z,996.28
2023-03-07T00:27:00.810Z,996.24
2023-03-07T00:28:21.707Z,996.18
2023-03-07T00:29:00.655Z,996.20
2023-03-07T00:30:00.606Z,996.18
2023-03-07T00:31:00.514Z,996.14
2023-03-07T00:32:00.439Z,996.13
2023-03-07T00:33:00.386Z,996.12
2023-03-07T00:34:21.276Z,996.08
2023-03-07T00:35:00.241Z,996.08
2023-03-07T00:36:00.264Z,996.00
2023-03-07T00:37:00.090Z,996.00
2023-03-07T00:38:00.004Z,996.04
2023-03-07T00:38:59.938Z,995.98
2023-03-07T00:40:20.850Z,995.96
2023-03-07T00:40:59.800Z,995.93
2023-03-07T00:41:59.732Z,995.94
2023-03-07T00:42:59.656Z,995.95
2023-03-07T00:43:59.578Z,995.90
2023-03-07T00:44:59.511Z,995.86
2023-03-07T00:46:20.422Z,995.88
2023-03-07T00:46:59.367Z,995.87
2023-03-07T00:47:59.300Z,995.81
2023-03-07T00:48:59.231Z,995.77
2023-03-07T00:49:59.162Z,995.72
2023-03-07T00:50:59.095Z,995.69
2023-03-07T00:52:20.022Z,995.67
2023-03-07T00:52:58.944Z,995.60
2023-03-07T00:53:58.872Z,995.65
2023-03-07T00:54:58.796Z,995.65
2023-03-07T00:55:58.736Z,995.59
2023-03-07T00:56:58.656Z,995.54
2023-03-07T00:58:19.566Z,995.53
2023-03-07T00:58:58.509Z,995.49
2023-03-07T00:59:58.431Z,995.46
2023-03-07T01:00:58.449Z,995.47
2023-03-07T01:01:58.294Z,995.47
2023-03-07T01:02:58.230Z,995.44
2023-03-07T01:04:19.214Z,995.39
2023-03-07T01:04:58.110Z,995.41
2023-03-07T01:05:58.013Z,995.39
2023-03-07T01:06:57.949Z,995.40
2023-03-07T01:07:57.876Z,995.36
2023-03-07T01:08:57.800Z,995.31
2023-03-07T01:10:18.707Z,995.31
2023-03-07T01:10:57.651Z,995.26
2023-03-07T01:11:57.584Z,995.25
2023-03-07T01:12:57.506Z,995.18
2023-03-07T01:13:57.460Z,995.18
2023-03-07T01:14:57.386Z,995.09
2023-03-07T01:16:18.378Z,995.12
2023-03-07T01:16:57.286Z,995.08
2023-03-07T01:17:57.163Z,995.07
2023-03-07T01:18:57.084Z,995.05
2023-03-07T01:19:57.007Z,994.99
2023-03-07T01:20:56.936Z,995.00
2023-03-07T01:22:17.842Z,994.95
2023-03-07T01:22:56.811Z,994.93
2023-03-07T01:23:56.729Z,994.91
2023-03-07T01:24:56.652Z,994.93
2023-03-07T01:25:56.573Z,994.88
2023-03-07T01:26:56.504Z,994.86
2023-03-07T01:28:17.413Z,994.82
2023-03-07T01:28:56.361Z,994.84
2023-03-07T01:29:56.283Z,994.83
2023-03-07T01:30:56.220Z,994.78
2023-03-07T01:31:56.186Z,994.82
2023-03-07T01:32:56.086Z,994.77
2023-03-07T01:34:16.994Z,994.77
2023-03-07T01:34:55.932Z,994.69
2023-03-07T01:35:55.954Z,994.61
2023-03-07T01:36:55.844Z,994.65
2023-03-07T01:37:55.720Z,994.57
2023-03-07T01:38:55.673Z,994.53
2023-03-07T01:40:16.551Z,994.62
2023-03-07T01:40:55.501Z,994.60
2023-03-07T01:41:55.446Z,994.55
2023-03-07T01:42:55.356Z,994.55
2023-03-07T01:43:55.277Z,994.47
2023-03-07T01:44:55.250Z,994.47
2023-03-07T01:46:16.157Z,994.47
2023-03-07T01:46:55.070Z,994.43
2023-03-07T01:47:54.995Z,994.40
2023-03-07T01:48:54.931Z,994.35
2023-03-07T01:49:54.869Z,994.32
2023-03-07T01:50:54.784Z,994.27
2023-03-07T01:52:15.689Z,994.28
2023-03-07T01:52:54.640Z,994.27
2023-03-07T01:53:54.563Z,994.20
2023-03-07T01:54:54.498Z,994.23
2023-03-07T01:55:54.413Z,994.16
2023-03-07T01:56:54.345Z,994.08
2023-03-07T01:58:15.265Z,994.07
2023-03-07T01:58:54.218Z,993.99
2023-03-07T01:59:54.124Z,994.02
2023-03-07T02:00:54.114Z,993.97
2023-03-07T02:01:53.989Z,993.93
2023-03-07T02:02:53.922Z,993.95
2023-03-07T02:04:14.852Z,993.94
2023-03-07T02:04:53.777Z,993.93
2023-03-07T02:05:53.700Z,993.96
2023-03-07T02:06:53.634Z,993.92
2023-03-07T02:07:53.561Z,993.87
2023-03-07T02:08:53.484Z,993.86
2023-03-07T02:10:14.415Z,993.91
2023-03-07T02:10:53.343Z,993.89
2023-03-07T02:11:53.275Z,993.85
2023-03-07T02:12:53.205Z,993.86
2023-03-07T02:13:53.122Z,993.83
2023-03-07T02:14:53.082Z,993.81
2023-03-07T02:16:14.049Z,993.82
2023-03-07T02:16:52.911Z,993.77
2023-03-07T02:17:52.843Z,993.71
2023-03-07T02:18:52.768Z,993.69
2023-03-07T02:19:52.692Z,993.64
2023-03-07T02:20:52.632Z,993.64
2023-03-07T02:22:13.531Z,993.57
2023-03-07T02:22:52.481Z,993.57
2023-03-07T02:23:52.405Z,993.55
2023-03-07T02:24:52.345Z,993.54
2023-03-07T02:25:52.256Z,993.49
2023-03-07T02:26:52.198Z,993.53
2023-03-07T02:28:13.110Z,993.48
2023-03-07T02:28:52.051Z,993.44
2023-03-07T02:29:51.973Z,993.38
2023-03-07T02:30:52.020Z,993.41
2023-03-07T02:31:51.837Z,993.39
2023-03-07T02:32:51.760Z,993.34
2023-03-07T02:34:12.672Z,993.32
2023-03-07T02:34:51.616Z,993.30
2023-03-07T02:35:51.682Z,993.28
2023-03-07T02:36:51.479Z,993.22
2023-03-07T02:37:51.411Z,993.20
2023-03-07T02:38:51.333Z,993.17
2023-03-07T02:40:12.246Z,993.13
2023-03-07T02:40:51.199Z,993.12
2023-03-07T02:41:51.113Z,993.09
2023-03-07T02:42:51.087Z,993.05
2023-03-07T02:43:50.991Z,993.07
2023-03-07T02:44:50.912Z,993.04
2023-03-07T02:46:11.837Z,993.08
2023-03-07T02:46:50.879Z,992.97
2023-03-07T02:47:50.684Z,992.98
2023-03-07T02:48:50.640Z,992.97
2023-03-07T02:49:50.545Z,992.93
2023-03-07T02:50:50.494Z,992.88
2023-03-07T02:52:11.392Z,992.89
2023-03-07T02:52:50.336Z,992.85
2023-03-07T02:53:50.267Z,992.83
2023-03-07T02:54:50.188Z,992.78
2023-03-07T02:55:50.122Z,992.76
2023-03-07T02:56:50.044Z,992.69
2023-03-07T02:58:10.955Z,992.68
2023-03-07T02:58:49.901Z,992.69
2023-03-07T02:59:49.849Z,992.59
2023-03-07T03:00:49.757Z,992.56
2023-03-07T03:01:49.726Z,992.55
2023-03-07T03:02:49.670Z,992.50
2023-03-07T03:04:10.537Z,992.49
2023-03-07T03:04:49.511Z,992.47
2023-03-07T03:05:49.402Z,992.45
2023-03-07T03:06:49.328Z,992.43
2023-03-07T03:07:49.314Z,992.40
2023-03-07T03:08:49.194Z,992.38
2023-03-07T03:10:10.092Z,992.38
2023-03-07T03:10:49.051Z,992.34
2023-03-07T03:11:48.967Z,992.34
2023-03-07T03:12:48.901Z,992.32
2023-03-07T03:13:48.836Z,992.26
2023-03-07T03:14:48.760Z,992.25
2023-03-07T03:16:09.754Z,992.19
2023-03-07T03:16:48.625Z,992.18
2023-03-07T03:17:48.544Z,992.13
2023-03-07T03:18:48.470Z,992.11
2023-03-07T03:19:48.398Z,992.09
2023-03-07T03:20:48.339Z,992.05
2023-03-07T03:22:09.237Z,992.02
2023-03-07T03:22:48.193Z,992.02
2023-03-07T03:23:48.134Z,991.98
2023-03-07T03:24:48.062Z,991.97
2023-03-07T03:25:47.975Z,991.96
2023-03-07T03:26:47.911Z,991.92
2023-03-07T03:28:08.817Z,991.84
2023-03-07T03:28:47.814Z,991.83
2023-03-07T03:29:47.688Z,991.77
2023-03-07T03:30:47.613Z,991.79
2023-03-07T03:31:47.544Z,991.73
2023-03-07T03:32:47.473Z,991.71
2023-03-07T03:34:08.389Z,991.66
2023-03-07T03:34:47.360Z,991.66
2023-03-07T03:35:47.308Z,991.71
2023-03-07T03:36:47.190Z,991.68
2023-03-07T03:37:47.130Z,991.66
2023-03-07T03:38:47.043Z,991.67
2023-03-07T03:40:07.962Z,991.64
2023-03-07T03:40:46.907Z,991.61
2023-03-07T03:41:46.864Z,991.63
2023-03-07T03:42:46.756Z,991.61
2023-03-07T03:43:46.688Z,991.52
2023-03-07T03:44:46.616Z,991.54
2023-03-07T03:46:07.596Z,991.44
2023-03-07T03:46:46.507Z,991.41
2023-03-07T03:47:46.392Z,991.39
2023-03-07T03:48:46.331Z,991.41
2023-03-07T03:49:46.275Z,991.43
2023-03-07T03:50:46.181Z,991.34
2023-03-07T03:52:07.096Z,991.38
2023-03-07T03:52:46.050Z,991.39
2023-03-07T03:53:45.972Z,991.34
2023-03-07T03:54:45.898Z,991.31
2023-03-07T03:55:45.822Z,991.35
2023-03-07T03:56:45.761Z,991.32
2023-03-07T03:58:06.664Z,991.35
2023-03-07T03:58:45.612Z,991.35
2023-03-07T03:59:45.536Z,991.37
2023-03-07T04:00:45.470Z,991.32
2023-03-07T04:01:45.439Z,991.28
2023-03-07T04:02:45.419Z,991.29
2023-03-07T04:04:06.233Z,991.23
2023-03-07T04:04:45.189Z,991.21
2023-03-07T04:05:45.141Z,991.21
2023-03-07T04:06:45.048Z,991.22
2023-03-07T04:07:44.974Z,991.13
2023-03-07T04:08:44.900Z,991.15
2023-03-07T04:10:05.802Z,990.97
2023-03-07T04:10:44.782Z,991.11
2023-03-07T04:11:44.681Z,991.10
2023-03-07T04:12:44.615Z,991.07
2023-03-07T04:13:44.534Z,991.02
2023-03-07T04:14:44.472Z,990.98
2023-03-07T04:16:05.426Z,991.00
2023-03-07T04:16:44.456Z,991.08
2023-03-07T04:17:44.253Z,990.93
2023-03-07T04:18:44.185Z,990.94
2023-03-07T04:19:44.106Z,990.94
2023-03-07T04:20:44.053Z,990.93
2023-03-07T04:22:04.947Z,990.92
2023-03-07T04:22:43.899Z,990.79
2023-03-07T04:23:43.825Z,990.76
2023-03-07T04:24:43.761Z,990.86
2023-03-07T04:25:43.715Z,990.80
2023-03-07T04:26:43.632Z,990.74
2023-03-07T04:28:04.528Z,990.77
2023-03-07T04:28:43.485Z,990.71
2023-03-07T04:29:43.397Z,990.73
2023-03-07T04:30:43.323Z,990.71
2023-03-07T04:31:43.367Z,990.72
2023-03-07T04:32:43.218Z,990.64
2023-03-07T04:34:04.097Z,990.59
2023-03-07T04:34:43.039Z,990.59
2023-03-07T04:35:42.998Z,990.52
2023-03-07T04:36:42.894Z,990.57
2023-03-07T04:37:42.826Z,990.58
2023-03-07T04:38:42.753Z,990.52
2023-03-07T04:40:03.668Z,990.55
2023-03-07T04:40:42.611Z,990.53
2023-03-07T04:41:42.556Z,990.51
2023-03-07T04:42:42.473Z,990.46
2023-03-07T04:43:42.412Z,990.46
2023-03-07T04:44:42.328Z,990.39
2023-03-07T04:46:03.340Z,990.49
2023-03-07T04:46:42.198Z,990.41
2023-03-07T04:47:42.123Z,990.48
2023-03-07T04:48:42.055Z,990.37
2023-03-07T04:49:41.972Z,990.38
2023-03-07T04:50:41.903Z,990.34
2023-03-07T04:52:02.819Z,990.43
2023-03-07T04:52:41.756Z,990.31
2023-03-07T04:53:41.695Z,990.24
2023-03-07T04:54:41.624Z,990.27
2023-03-07T04:55:41.550Z,990.24
2023-03-07T04:56:41.474Z,990.28
2023-03-07T04:58:02.391Z,990.28
2023-03-07T04:58:41.334Z,990.20
2023-03-07T04:59:41.275Z,990.13
2023-03-07T05:00:41.190Z,989.96
2023-03-07T05:01:41.151Z,990.19
2023-03-07T05:02:41.061Z,990.15
2023-03-07T05:04:02.011Z,990.12
2023-03-07T05:04:40.929Z,990.13
2023-03-07T05:05:40.839Z,990.03
2023-03-07T05:06:40.768Z,990.02
2023-03-07T05:07:40.693Z,990.05
2023-03-07T05:08:40.618Z,990.00
2023-03-07T05:10:01.535Z,990.02
2023-03-07T05:10:40.478Z,989.98
2023-03-07T05:11:40.404Z,990.01
2023-03-07T05:12:40.342Z,989.97
2023-03-07T05:13:40.278Z,989.92
2023-03-07T05:14:40.210Z,989.97
2023-03-07T05:16:01.162Z,989.82
2023-03-07T05:16:40.069Z,989.92
2023-03-07T05:17:39.982Z,989.89
2023-03-07T05:18:39.909Z,989.90
2023-03-07T05:19:39.841Z,989.89
2023-03-07T05:20:39.764Z,989.90
2023-03-07T05:22:00.681Z,989.90
2023-03-07T05:22:39.623Z,989.76
2023-03-07T05:23:39.553Z,989.85
2023-03-07T05:24:39.478Z,989.83
2023-03-07T05:25:39.413Z,989.86
2023-03-07T05:26:39.332Z,989.86
2023-03-07T05:28:00.249Z,989.83
2023-03-07T05:28:39.187Z,989.81
2023-03-07T05:29:39.124Z,989.84
2023-03-07T05:30:39.062Z,989.74
2023-03-07T05:31:38.978Z,989.79
2023-03-07T05:32:39.015Z,989.83
2023-03-07T05:33:59.827Z,989.79
2023-03-07T05:34:38.773Z,989.75
2023-03-07T05:35:38.770Z,989.77
2023-03-07T05:36:38.623Z,989.77
2023-03-07T05:37:38.548Z,989.80
2023-03-07T05:38:38.487Z,989.77
2023-03-07T05:39:59.398Z,989.68
2023-03-07T05:40:38.335Z,989.78
2023-03-07T05:41:38.262Z,989.71
2023-03-07T05:42:38.191Z,989.76
2023-03-07T05:43:38.138Z,989.73
2023-03-07T05:44:38.061Z,989.76
2023-03-07T05:45:58.997Z,989.73
2023-03-07T05:46:37.966Z,989.70
2023-03-07T05:47:37.838Z,989.67
2023-03-07T05:48:37.773Z,989.66
2023-03-07T05:49:37.698Z,989.63
2023-03-07T05:50:37.623Z,989.63
2023-03-07T05:51:58.538Z,989.67
2023-03-07T05:52:37.478Z,989.64
2023-03-07T05:53:37.412Z,989.63
2023-03-07T05:54:37.343Z,989.66
2023-03-07T05:55:37.271Z,989.62
2023-03-07T05:56:37.192Z,989.61
2023-03-07T05:57:58.137Z,989.66
2023-03-07T05:58:37.055Z,989.70
2023-03-07T05:59:36.978Z,989.72
2023-03-07T06:00:36.903Z,989.63
2023-03-07T06:01:36.845Z,989.62
2023-03-07T06:02:36.799Z,989.65
2023-03-07T06:03:57.730Z,989.73
2023-03-07T06:04:36.622Z,989.68
2023-03-07T06:05:36.562Z,989.61
2023-03-07T06:06:36.478Z,989.61
2023-03-07T06:07:36.426Z,989.64
2023-03-07T06:08:36.364Z,989.62
2023-03-07T06:09:57.257Z,989.60
2023-03-07T06:10:36.238Z,989.64
2023-03-07T06:11:36.189Z,989.66
2023-03-07T06:12:36.045Z,989.67
2023-03-07T06:13:35.980Z,989.60
2023-03-07T06:14:35.910Z,989.67
2023-03-07T06:15:56.882Z,989.63
2023-03-07T06:16:35.763Z,989.70
2023-03-07T06:17:35.691Z,989.62
2023-03-07T06:18:35.620Z,989.56
2023-03-07T06:19:35.549Z,989.55
2023-03-07T06:20:35.481Z,989.52
2023-03-07T06:21:56.390Z,989.52
2023-03-07T06:22:35.334Z,989.54
2023-03-07T06:23:35.260Z,989.52
2023-03-07T06:24:35.202Z,989.49
2023-03-07T06:25:35.134Z,989.54
2023-03-07T06:26:35.047Z,989.58
2023-03-07T06:27:55.967Z,989.60
2023-03-07T06:28:34.923Z,989.56
2023-03-07T06:29:34.844Z,989.58
2023-03-07T06:30:34.772Z,989.62
2023-03-07T06:31:34.868Z,989.64
2023-03-07T06:32:34.649Z,989.56
2023-03-07T06:33:57.508Z,989.62
2023-03-07T06:34:34.496Z,989.61
2023-03-07T06:35:34.417Z,989.57
2023-03-07T06:36:34.333Z,989.59
2023-03-07T06:37:34.300Z,989.58
2023-03-07T06:38:34.199Z,989.59
2023-03-07T06:39:55.108Z,989.60
2023-03-07T06:40:34.054Z,989.63
2023-03-07T06:41:33.985Z,989.70
2023-03-07T06:42:33.909Z,989.69
2023-03-07T06:43:33.842Z,989.63
2023-03-07T06:44:33.769Z,989.68
2023-03-07T06:45:54.798Z,989.64
2023-03-07T06:46:33.628Z,989.67
2023-03-07T06:47:33.562Z,989.63
2023-03-07T06:48:33.489Z,989.69
2023-03-07T06:49:33.418Z,989.69
2023-03-07T06:50:35.693Z,989.66
2023-03-07T06:51:54.266Z,989.68
2023-03-07T06:52:33.376Z,989.64
2023-03-07T06:53:33.142Z,989.62
2023-03-07T06:54:33.136Z,989.71
2023-03-07T06:55:32.997Z,989.64
2023-03-07T06:56:32.927Z,989.66
2023-03-07T06:57:53.834Z,989.60
2023-03-07T06:58:32.776Z,989.65
2023-03-07T06:59:32.711Z,989.64
2023-03-07T07:00:32.802Z,989.65
2023-03-07T07:01:32.560Z,989.65
2023-03-07T07:02:32.616Z,989.58
2023-03-07T07:03:53.409Z,989.64
2023-03-07T07:04:32.347Z,989.54
2023-03-07T07:05:32.275Z,989.63
2023-03-07T07:06:32.203Z,989.66
2023-03-07T07:07:32.135Z,989.61
2023-03-07T07:08:32.073Z,989.68
2023-03-07T07:09:52.987Z,989.67
2023-03-07T07:10:31.920Z,989.60
2023-03-07T07:11:31.870Z,989.52
2023-03-07T07:12:31.784Z,989.56
2023-03-07T07:13:31.720Z,989.49
2023-03-07T07:14:31.633Z,989.52
2023-03-07T07:15:52.551Z,989.51
2023-03-07T07:16:31.562Z,989.46
2023-03-07T07:17:31.441Z,989.55
2023-03-07T07:18:31.353Z,989.51
2023-03-07T07:19:31.298Z,989.55
2023-03-07T07:20:31.214Z,989.52
2023-03-07T07:21:52.135Z,989.51
2023-03-07T07:22:31.074Z,989.47
2023-03-07T07:23:31.016Z,989.53
2023-03-07T07:24:30.942Z,989.49
2023-03-07T07:25:30.886Z,989.46
2023-03-07T07:26:30.786Z,989.41
2023-03-07T07:27:51.712Z,989.45
2023-03-07T07:28:30.655Z,989.43
2023-03-07T07:29:30.592Z,989.40
2023-03-07T07:30:30.526Z,989.36
2023-03-07T07:31:30.472Z,989.39
2023-03-07T07:32:30.525Z,989.35
2023-03-07T07:33:51.282Z,989.38
2023-03-07T07:34:30.227Z,989.38
2023-03-07T07:35:30.312Z,989.39
2023-03-07T07:36:30.098Z,989.43
2023-03-07T07:37:30.051Z,989.47
2023-03-07T07:38:29.942Z,989.46
2023-03-07T07:39:50.863Z,989.41
2023-03-07T07:40:29.805Z,989.46
2023-03-07T07:41:29.746Z,989.46
2023-03-07T07:42:32.139Z,989.49
2023-03-07T07:43:29.621Z,989.43
2023-03-07T07:44:29.541Z,989.44
2023-03-07T07:45:50.493Z,989.36
2023-03-07T07:46:29.387Z,989.39
2023-03-07T07:47:29.319Z,989.31
2023-03-07T07:48:29.245Z,989.31
2023-03-07T07:49:29.183Z,989.39
2023-03-07T07:50:29.105Z,989.45
2023-03-07T07:51:50.040Z,989.43
2023-03-07T07:52:28.988Z,989.34
2023-03-07T07:53:28.899Z,989.40
2023-03-07T07:54:28.836Z,989.30
2023-03-07T07:55:28.766Z,989.30
2023-03-07T07:56:28.694Z,989.38
2023-03-07T07:57:49.623Z,989.49
2023-03-07T07:58:28.557Z,989.47
2023-03-07T07:59:28.497Z,989.53
2023-03-07T08:00:28.515Z,989.48
2023-03-07T08:01:28.344Z,989.44
2023-03-07T08:02:28.299Z,989.48
2023-03-07T08:03:49.235Z,989.51
2023-03-07T08:04:28.140Z,989.50
2023-03-07T08:05:28.062Z,989.51
2023-03-07T08:06:28.001Z,989.50
2023-03-07T08:07:27.933Z,989.41
2023-03-07T08:08:27.855Z,989.49
2023-03-07T08:09:48.813Z,989.53
2023-03-07T08:10:27.723Z,989.52
2023-03-07T08:11:27.754Z,989.53
2023-03-07T08:12:28.087Z,989.47
2023-03-07T08:13:27.515Z,989.49
2023-03-07T08:14:27.445Z,989.51
2023-03-07T08:15:48.413Z,989.57
2023-03-07T08:16:27.305Z,989.56
2023-03-07T08:17:27.235Z,989.51
2023-03-07T08:18:27.160Z,989.50
2023-03-07T08:19:27.102Z,989.56
2023-03-07T08:20:27.057Z,989.64
2023-03-07T08:21:47.939Z,989.61
2023-03-07T08:22:26.893Z,989.59
2023-03-07T08:23:26.818Z,989.58
2023-03-07T08:24:39.738Z,989.53
2023-03-07T08:25:26.688Z,989.48
2023-03-07T08:26:26.610Z,989.48
2023-03-07T08:27:47.524Z,989.40
2023-03-07T08:28:26.471Z,989.41
2023-03-07T08:29:26.412Z,989.37
2023-03-07T08:30:26.429Z,989.43
2023-03-07T08:31:26.330Z,989.51
2023-03-07T08:32:26.262Z,989.51
2023-03-07T08:33:47.101Z,989.54
2023-03-07T08:34:26.044Z,989.52
2023-03-07T08:35:26.086Z,989.59
2023-03-07T08:36:25.939Z,989.55
2023-03-07T08:37:25.875Z,989.51
2023-03-07T08:38:27.781Z,989.55
2023-03-07T08:39:46.686Z,989.56
2023-03-07T08:40:25.636Z,989.55
2023-03-07T08:41:25.571Z,989.54
2023-03-07T08:42:25.509Z,989.56
2023-03-07T08:43:25.432Z,989.55
2023-03-07T08:44:25.357Z,989.54
2023-03-07T08:45:46.280Z,989.52
2023-03-07T08:46:25.256Z,989.52
2023-03-07T08:47:25.140Z,989.49
2023-03-07T08:48:25.072Z,989.49
2023-03-07T08:49:24.997Z,989.45
2023-03-07T08:50:25.846Z,989.45
2023-03-07T08:51:45.847Z,989.46
2023-03-07T08:52:24.796Z,989.50
2023-03-07T08:53:24.717Z,989.44
2023-03-07T08:54:24.647Z,989.46
2023-03-07T08:55:24.585Z,989.46
2023-03-07T08:56:24.510Z,989.47
2023-03-07T08:57:45.415Z,989.48
2023-03-07T08:58:24.373Z,989.48
2023-03-07T08:59:24.374Z,989.49
2023-03-07T09:00:24.302Z,989.48
2023-03-07T09:01:24.160Z,989.45
2023-03-07T09:02:24.088Z,989.49
2023-03-07T09:03:44.995Z,989.43
2023-03-07T09:04:23.992Z,989.45
2023-03-07T09:05:23.876Z,989.47
2023-03-07T09:06:23.825Z,989.48
2023-03-07T09:07:23.739Z,989.46
2023-03-07T09:08:23.671Z,989.49
2023-03-07T09:09:44.593Z,989.45
2023-03-07T09:10:23.551Z,989.47
2023-03-07T09:11:23.462Z,989.47
2023-03-07T09:12:23.393Z,989.51
2023-03-07T09:13:23.314Z,989.46
2023-03-07T09:14:23.246Z,989.47
2023-03-07T09:15:44.171Z,989.52
2023-03-07T09:16:23.247Z,989.39
2023-03-07T09:17:23.060Z,989.40
2023-03-07T09:18:22.999Z,989.44
2023-03-07T09:19:22.902Z,989.52
2023-03-07T09:20:22.836Z,989.47
2023-03-07T09:21:43.754Z,989.52
2023-03-07T09:22:22.698Z,989.48
2023-03-07T09:23:22.627Z,989.46
2023-03-07T09:24:22.568Z,989.53
2023-03-07T09:25:22.493Z,989.55
2023-03-07T09:26:22.472Z,989.54
2023-03-07T09:27:43.329Z,989.58
2023-03-07T09:28:22.281Z,989.60
2023-03-07T09:29:22.222Z,989.60
2023-03-07T09:30:22.166Z,989.56
2023-03-07T09:31:22.098Z,989.43
2023-03-07T09:32:22.044Z,989.51
2023-03-07T09:33:44.137Z,989.44
2023-03-07T09:34:21.861Z,989.46
2023-03-07T09:35:21.813Z,989.42
2023-03-07T09:36:21.728Z,989.32
2023-03-07T09:37:21.686Z,989.41
2023-03-07T09:38:21.597Z,989.38
2023-03-07T09:39:42.511Z,989.31
2023-03-07T09:40:21.478Z,989.35
2023-03-07T09:41:21.391Z,989.32
2023-03-07T09:42:21.318Z,989.29
2023-03-07T09:43:21.255Z,989.36
2023-03-07T09:44:21.177Z,989.31
2023-03-07T09:45:42.137Z,989.29
2023-03-07T09:46:21.044Z,989.33
2023-03-07T09:47:20.968Z,989.36
2023-03-07T09:48:20.916Z,989.33
2023-03-07T09:49:20.842Z,989.30
2023-03-07T09:50:20.861Z,989.30
2023-03-07T09:51:41.678Z,989.28
2023-03-07T09:52:20.643Z,989.26
2023-03-07T09:53:20.556Z,989.29
2023-03-07T09:54:20.511Z,989.26
2023-03-07T09:55:20.416Z,989.26
2023-03-07T09:56:20.354Z,989.34
2023-03-07T09:57:41.282Z,989.33
2023-03-07T09:58:20.219Z,989.32
2023-03-07T09:59:23.126Z,989.33
2023-03-07T10:00:20.186Z,989.35
2023-03-07T10:01:20.005Z,989.30
2023-03-07T10:02:19.939Z,989.26
2023-03-07T10:03:40.892Z,989.26
2023-03-07T10:04:19.829Z,989.26
2023-03-07T10:05:19.752Z,989.25
2023-03-07T10:06:19.695Z,989.28
2023-03-07T10:07:19.603Z,989.26
2023-03-07T10:08:19.562Z,989.23
2023-03-07T10:09:40.464Z,989.24
2023-03-07T10:10:19.415Z,989.27
2023-03-07T10:11:19.371Z,989.23
2023-03-07T10:12:19.274Z,989.28
2023-03-07T10:13:19.200Z,989.27
2023-03-07T10:14:19.135Z,989.26
2023-03-07T10:15:40.241Z,989.30
2023-03-07T10:16:19.085Z,989.29
2023-03-07T10:17:18.931Z,989.28
2023-03-07T10:18:18.874Z,989.25
2023-03-07T10:19:18.812Z,989.35
2023-03-07T10:20:18.843Z,989.30
2023-03-07T10:21:39.657Z,989.22
2023-03-07T10:22:18.608Z,989.29
2023-03-07T10:23:18.536Z,989.18
2023-03-07T10:24:18.477Z,989.24
2023-03-07T10:25:18.406Z,989.32
2023-03-07T10:26:18.336Z,989.14
2023-03-07T10:27:39.251Z,989.25
2023-03-07T10:28:18.237Z,989.28
2023-03-07T10:29:18.180Z,989.23
2023-03-07T10:30:18.086Z,989.33
2023-03-07T10:31:18.056Z,989.30
2023-03-07T10:32:17.948Z,989.26
2023-03-07T10:33:40.241Z,989.30
2023-03-07T10:34:26.590Z,989.29
2023-03-07T10:35:17.786Z,989.27
2023-03-07T10:36:17.673Z,989.22
2023-03-07T10:37:17.610Z,989.24
2023-03-07T10:38:17.543Z,989.26
2023-03-07T10:39:38.462Z,989.23
2023-03-07T10:40:17.421Z,989.28
2023-03-07T10:41:17.344Z,989.20
2023-03-07T10:42:17.269Z,989.28
2023-03-07T10:43:17.208Z,989.21
2023-03-07T10:44:17.140Z,989.22
2023-03-07T10:45:38.181Z,989.20
2023-03-07T10:46:25.180Z,989.28
2023-03-07T10:47:16.967Z,989.20
2023-03-07T10:48:16.871Z,989.17
2023-03-07T10:49:16.809Z,989.18
2023-03-07T10:50:16.731Z,989.15
2023-03-07T10:51:37.660Z,989.22
2023-03-07T10:52:16.612Z,989.20
2023-03-07T10:53:16.531Z,989.25
2023-03-07T10:54:16.485Z,989.24
2023-03-07T10:55:16.413Z,989.16
2023-03-07T10:56:16.336Z,989.20
2023-03-07T10:57:37.253Z,989.12
2023-03-07T10:58:16.203Z,989.13
2023-03-07T10:59:16.145Z,989.12
2023-03-07T11:00:16.068Z,989.11
2023-03-07T11:01:16.134Z,989.15
2023-03-07T11:02:15.938Z,989.08
2023-03-07T11:03:51.063Z,989.07
2023-03-07T11:04:15.813Z,989.04
2023-03-07T11:05:15.753Z,989.08
2023-03-07T11:06:15.669Z,989.02
2023-03-07T11:07:15.598Z,989.02
2023-03-07T11:08:15.545Z,989.02
2023-03-07T11:09:36.532Z,989.05
2023-03-07T11:10:15.393Z,989.00
2023-03-07T11:11:15.337Z,988.99
2023-03-07T11:12:15.256Z,988.93
2023-03-07T11:13:15.213Z,988.93
2023-03-07T11:14:16.934Z,988.84
2023-03-07T11:15:36.046Z,988.92
2023-03-07T11:16:15.005Z,988.93
2023-03-07T11:17:14.920Z,988.93
2023-03-07T11:18:14.873Z,988.86
2023-03-07T11:19:14.799Z,988.89
2023-03-07T11:20:14.739Z,988.88
2023-03-07T11:21:35.684Z,988.91
2023-03-07T11:22:14.597Z,988.90
2023-03-07T11:23:14.544Z,988.87
2023-03-07T11:24:14.582Z,988.92
2023-03-07T11:25:14.456Z,988.96
2023-03-07T11:26:14.329Z,988.88
2023-03-07T11:27:35.241Z,988.92
2023-03-07T11:28:14.215Z,988.88
2023-03-07T11:29:14.126Z,988.89
2023-03-07T11:30:14.053Z,988.93
2023-03-07T11:31:14.037Z,988.89
2023-03-07T11:32:13.998Z,988.90
2023-03-07T11:33:34.833Z,988.94
2023-03-07T11:34:13.780Z,988.86
2023-03-07T11:35:13.712Z,988.86
2023-03-07T11:36:13.650Z,988.87
2023-03-07T11:37:13.592Z,988.85
2023-03-07T11:38:13.519Z,988.87
2023-03-07T11:39:34.435Z,988.81
2023-03-07T11:40:13.389Z,988.84
2023-03-07T11:41:13.324Z,988.82
2023-03-07T11:42:13.247Z,988.92
2023-03-07T11:43:13.186Z,988.87
2023-03-07T11:44:13.126Z,988.87
2023-03-07T11:45:34.021Z,988.80
2023-03-07T11:46:13.029Z,988.77
2023-03-07T11:47:12.905Z,988.77
2023-03-07T11:48:12.846Z,988.74
2023-03-07T11:49:12.802Z,988.79
2023-03-07T11:50:12.727Z,988.75
2023-03-07T11:51:33.625Z,988.74
2023-03-07T11:52:12.572Z,988.74
2023-03-07T11:53:12.507Z,988.75
2023-03-07T11:54:12.440Z,988.73
2023-03-07T11:55:12.385Z,988.77
2023-03-07T11:56:12.328Z,988.74
2023-03-07T11:57:33.222Z,988.76
2023-03-07T11:58:12.169Z,988.73
2023-03-07T11:59:12.102Z,988.72
2023-03-07T12:00:12.047Z,988.65
2023-03-07T12:01:12.204Z,988.73
2023-03-07T12:02:11.930Z,988.74
2023-03-07T12:03:32.818Z,988.73
2023-03-07T12:04:11.774Z,988.71
2023-03-07T12:05:11.700Z,988.71
2023-03-07T12:06:11.629Z,988.71
2023-03-07T12:07:11.554Z,988.71
2023-03-07T12:08:11.504Z,988.73
2023-03-07T12:09:32.409Z,988.72
2023-03-07T12:10:11.355Z,988.73
2023-03-07T12:11:11.287Z,988.80
2023-03-07T12:12:11.220Z,988.84
2023-03-07T12:13:11.174Z,988.78
2023-03-07T12:14:11.099Z,988.85
2023-03-07T12:15:31.999Z,988.74
2023-03-07T12:16:11.020Z,988.77
2023-03-07T12:17:10.883Z,988.79
2023-03-07T12:18:10.879Z,988.80
2023-03-07T12:19:10.754Z,988.81
2023-03-07T12:20:10.679Z,988.73
2023-03-07T12:21:31.595Z,988.75
2023-03-07T12:22:10.532Z,988.83
2023-03-07T12:23:10.477Z,988.79
2023-03-07T12:24:10.397Z,988.83
2023-03-07T12:25:10.325Z,988.82
2023-03-07T12:26:10.261Z,988.82
2023-03-07T12:27:31.177Z,988.80